THT101 NTAA-NZAA
Flight info
| Callsign | THT101 |
|---|---|
| Flight time | N/A |
| Altitude | 34000 |
| Route | MAITO G594 KRILL/N0493F360 G594 MEXIP/N0485F380 G594 AKLOM |
| Aircraft | A343/H-SDE2E3FGHIJ4J5M1RWXY/LB1D1 |
Departure
| Time | N/A |
|---|---|
| Airport | Fa'a'ā International Airport (NTAA) |
Arrival
| Time | 2026-05-08 04:34 |
|---|---|
| Airport | Auckland International Airport (NZAA) |
| Time | Latitude | Longitude | Altitude | Speed | Heading |
|---|---|---|---|---|---|
| 2026-05-08 04:01 | -35.67883 | 177.44329 | 38054 ft | 418 kts | 251° |
| 2026-05-08 04:01 | -35.70098 | 177.37648 | 38047 ft | 427 kts | 251° |
| 2026-05-08 04:02 | -35.72337 | 177.30890 | 38051 ft | 427 kts | 251° |
| 2026-05-08 04:02 | -35.74556 | 177.24178 | 38039 ft | 426 kts | 251° |
| 2026-05-08 04:03 | -35.76781 | 177.17426 | 38039 ft | 426 kts | 251° |
| 2026-05-08 04:03 | -35.80108 | 177.07307 | 38032 ft | 426 kts | 251° |
| 2026-05-08 04:04 | -35.82324 | 177.00546 | 38032 ft | 426 kts | 251° |
| 2026-05-08 04:04 | -35.84519 | 176.93832 | 38043 ft | 426 kts | 251° |
| 2026-05-08 04:05 | -35.86669 | 176.87248 | 38030 ft | 422 kts | 251° |
| 2026-05-08 04:05 | -35.88852 | 176.80541 | 38030 ft | 421 kts | 251° |
| 2026-05-08 04:06 | -35.91019 | 176.73870 | 38017 ft | 422 kts | 251° |
| 2026-05-08 04:06 | -35.93189 | 176.67173 | 38013 ft | 422 kts | 251° |
| 2026-05-08 04:07 | -35.95357 | 176.60469 | 38020 ft | 422 kts | 252° |
| 2026-05-08 04:07 | -35.97525 | 176.53750 | 38014 ft | 422 kts | 252° |
| 2026-05-08 04:08 | -35.99675 | 176.47070 | 38015 ft | 422 kts | 252° |
| 2026-05-08 04:08 | -36.01816 | 176.40405 | 37981 ft | 421 kts | 252° |
| 2026-05-08 04:09 | -36.02876 | 176.37098 | 37728 ft | 422 kts | 252° |
| 2026-05-08 04:09 | -36.03947 | 176.33757 | 37433 ft | 417 kts | 252° |
| 2026-05-08 04:09 | -36.05009 | 176.30441 | 36990 ft | 415 kts | 252° |
| 2026-05-08 04:09 | -36.06038 | 176.27218 | 36425 ft | 417 kts | 252° |
| 2026-05-08 04:10 | -36.07124 | 176.23811 | 35804 ft | 419 kts | 252° |
| 2026-05-08 04:10 | -36.08183 | 176.20489 | 35174 ft | 422 kts | 252° |
| 2026-05-08 04:10 | -36.09263 | 176.17094 | 34487 ft | 427 kts | 252° |
| 2026-05-08 04:10 | -36.10353 | 176.13664 | 33771 ft | 431 kts | 252° |
| 2026-05-08 04:11 | -36.11454 | 176.10198 | 33013 ft | 435 kts | 252° |
| 2026-05-08 04:11 | -36.12564 | 176.06702 | 32260 ft | 438 kts | 252° |
| 2026-05-08 04:11 | -36.13675 | 176.03197 | 31511 ft | 441 kts | 252° |
| 2026-05-08 04:11 | -36.14800 | 175.99643 | 30841 ft | 442 kts | 251° |
| 2026-05-08 04:12 | -36.15918 | 175.96111 | 30308 ft | 440 kts | 251° |
| 2026-05-08 04:12 | -36.17032 | 175.92588 | 29729 ft | 438 kts | 251° |
| 2026-05-08 04:12 | -36.18135 | 175.89095 | 29170 ft | 435 kts | 252° |
| 2026-05-08 04:12 | -36.19216 | 175.85666 | 28614 ft | 431 kts | 252° |
| 2026-05-08 04:13 | -36.20299 | 175.82226 | 28064 ft | 428 kts | 252° |
| 2026-05-08 04:13 | -36.21373 | 175.78808 | 27542 ft | 424 kts | 252° |
| 2026-05-08 04:13 | -36.22438 | 175.75416 | 26996 ft | 422 kts | 252° |
| 2026-05-08 04:13 | -36.23495 | 175.72046 | 26456 ft | 419 kts | 253° |
| 2026-05-08 04:14 | -36.24546 | 175.68690 | 25911 ft | 416 kts | 253° |
| 2026-05-08 04:14 | -36.25588 | 175.65357 | 25364 ft | 414 kts | 253° |
| 2026-05-08 04:14 | -36.26626 | 175.62038 | 24821 ft | 412 kts | 253° |
| 2026-05-08 04:14 | -36.27640 | 175.58789 | 24290 ft | 409 kts | 253° |
| 2026-05-08 04:15 | -36.28654 | 175.55535 | 23746 ft | 407 kts | 253° |
| 2026-05-08 04:15 | -36.29670 | 175.52272 | 23150 ft | 405 kts | 253° |
| 2026-05-08 04:15 | -36.30658 | 175.49096 | 22596 ft | 402 kts | 253° |
| 2026-05-08 04:15 | -36.31653 | 175.45892 | 22070 ft | 398 kts | 253° |
| 2026-05-08 04:16 | -36.32633 | 175.42738 | 21550 ft | 394 kts | 254° |
| 2026-05-08 04:16 | -36.33614 | 175.39575 | 21041 ft | 392 kts | 254° |
| 2026-05-08 04:16 | -36.34588 | 175.36434 | 20497 ft | 389 kts | 254° |
| 2026-05-08 04:16 | -36.35622 | 175.33331 | 20021 ft | 390 kts | 249° |
| 2026-05-08 04:17 | -36.37151 | 175.30578 | 19528 ft | 399 kts | 232° |
| 2026-05-08 04:17 | -36.39395 | 175.28485 | 18988 ft | 411 kts | 214° |
| 2026-05-08 04:17 | -36.41969 | 175.26900 | 18426 ft | 415 kts | 211° |
| 2026-05-08 04:17 | -36.44589 | 175.25393 | 17792 ft | 416 kts | 211° |
| 2026-05-08 04:18 | -36.47112 | 175.23938 | 17221 ft | 414 kts | 211° |
| 2026-05-08 04:18 | -36.49690 | 175.22441 | 16638 ft | 403 kts | 211° |
| 2026-05-08 04:18 | -36.52171 | 175.20998 | 16097 ft | 384 kts | 211° |
| 2026-05-08 04:18 | -36.54511 | 175.19631 | 15907 ft | 360 kts | 211° |
| 2026-05-08 04:19 | -36.56703 | 175.18343 | 15728 ft | 350 kts | 212° |
| 2026-05-08 04:19 | -36.58953 | 175.17001 | 15453 ft | 365 kts | 212° |
| 2026-05-08 04:19 | -36.61254 | 175.15641 | 15310 ft | 362 kts | 211° |
| 2026-05-08 04:19 | -36.63509 | 175.14312 | 14651 ft | 360 kts | 211° |
| 2026-05-08 04:20 | -36.65791 | 175.12950 | 14143 ft | 366 kts | 211° |
| 2026-05-08 04:20 | -36.68089 | 175.11584 | 13861 ft | 365 kts | 211° |
| 2026-05-08 04:20 | -36.70366 | 175.10235 | 13323 ft | 359 kts | 211° |
| 2026-05-08 04:20 | -36.72605 | 175.08907 | 12758 ft | 357 kts | 211° |
| 2026-05-08 04:21 | -36.74826 | 175.07586 | 12384 ft | 356 kts | 210° |
| 2026-05-08 04:21 | -36.77047 | 175.06267 | 11904 ft | 354 kts | 210° |
| 2026-05-08 04:21 | -36.79249 | 175.04953 | 11470 ft | 346 kts | 211° |
| 2026-05-08 04:21 | -36.81187 | 175.03391 | 11061 ft | 317 kts | 229° |
| 2026-05-08 04:22 | -36.82444 | 175.01358 | 10733 ft | 284 kts | 250° |
| 2026-05-08 04:22 | -36.83172 | 174.99138 | 10643 ft | 284 kts | 256° |
| 2026-05-08 04:22 | -36.83817 | 174.96823 | 10569 ft | 283 kts | 257° |
| 2026-05-08 04:22 | -36.84458 | 174.94503 | 10460 ft | 282 kts | 257° |
| 2026-05-08 04:23 | -36.85097 | 174.92185 | 10354 ft | 283 kts | 257° |
| 2026-05-08 04:23 | -36.85726 | 174.89920 | 10050 ft | 276 kts | 257° |
| 2026-05-08 04:23 | -36.86343 | 174.87711 | 9569 ft | 265 kts | 257° |
| 2026-05-08 04:23 | -36.86945 | 174.85537 | 9193 ft | 267 kts | 257° |
| 2026-05-08 04:24 | -36.87551 | 174.83340 | 8874 ft | 266 kts | 257° |
| 2026-05-08 04:24 | -36.88158 | 174.81152 | 8629 ft | 267 kts | 258° |
| 2026-05-08 04:24 | -36.88757 | 174.78991 | 8406 ft | 264 kts | 258° |
| 2026-05-08 04:24 | -36.89352 | 174.76837 | 8296 ft | 265 kts | 258° |
| 2026-05-08 04:25 | -36.89965 | 174.74662 | 8147 ft | 265 kts | 256° |
| 2026-05-08 04:25 | -36.90746 | 174.72556 | 7832 ft | 269 kts | 250° |
| 2026-05-08 04:25 | -36.91611 | 174.70508 | 7545 ft | 270 kts | 249° |
| 2026-05-08 04:25 | -36.92495 | 174.68447 | 7162 ft | 268 kts | 250° |
| 2026-05-08 04:26 | -36.93321 | 174.66519 | 6615 ft | 265 kts | 250° |
| 2026-05-08 04:26 | -36.94183 | 174.64495 | 6021 ft | 262 kts | 249° |
| 2026-05-08 04:26 | -36.95021 | 174.62539 | 5666 ft | 249 kts | 250° |
| 2026-05-08 04:26 | -36.95820 | 174.60668 | 5380 ft | 242 kts | 251° |
| 2026-05-08 04:27 | -36.96607 | 174.58790 | 5240 ft | 246 kts | 251° |
| 2026-05-08 04:27 | -36.97400 | 174.56901 | 5124 ft | 244 kts | 251° |
| 2026-05-08 04:27 | -36.98181 | 174.55047 | 4892 ft | 245 kts | 252° |
| 2026-05-08 04:27 | -36.99002 | 174.53170 | 4607 ft | 248 kts | 247° |
| 2026-05-08 04:28 | -37.00229 | 174.51609 | 4363 ft | 262 kts | 214° |
| 2026-05-08 04:28 | -37.01999 | 174.51107 | 4218 ft | 266 kts | 175° |
| 2026-05-08 04:28 | -37.03769 | 174.51694 | 4029 ft | 261 kts | 157° |
| 2026-05-08 04:28 | -37.05459 | 174.52522 | 3685 ft | 262 kts | 152° |
| 2026-05-08 04:29 | -37.06757 | 174.53971 | 3462 ft | 243 kts | 110° |
| 2026-05-08 04:29 | -37.07178 | 174.55889 | 3405 ft | 220 kts | 85° |
| 2026-05-08 04:29 | -37.07040 | 174.57680 | 3287 ft | 198 kts | 62° |
| 2026-05-08 04:29 | -37.06566 | 174.59248 | 3068 ft | 194 kts | 57° |
| 2026-05-08 04:30 | -37.06100 | 174.60798 | 2788 ft | 185 kts | 60° |
| 2026-05-08 04:30 | -37.05708 | 174.62283 | 2494 ft | 174 kts | 61° |
| 2026-05-08 04:30 | -37.05327 | 174.63660 | 2270 ft | 162 kts | 60° |
| 2026-05-08 04:30 | -37.04967 | 174.64955 | 2040 ft | 151 kts | 59° |
| 2026-05-08 04:31 | -37.04648 | 174.66138 | 1855 ft | 135 kts | 58° |
| 2026-05-08 04:31 | -37.04337 | 174.67248 | 1681 ft | 137 kts | 59° |
| 2026-05-08 04:31 | -37.04022 | 174.68377 | 1462 ft | 139 kts | 61° |
| 2026-05-08 04:31 | -37.03716 | 174.69497 | 1285 ft | 137 kts | 62° |
| 2026-05-08 04:32 | -37.03409 | 174.70615 | 1100 ft | 135 kts | 62° |
| 2026-05-08 04:32 | -37.03103 | 174.71719 | 934 ft | 134 kts | 65° |
| 2026-05-08 04:32 | -37.02797 | 174.72822 | 743 ft | 134 kts | 64° |
| 2026-05-08 04:32 | -37.02498 | 174.73914 | 622 ft | 133 kts | 62° |
| 2026-05-08 04:33 | -37.02197 | 174.75010 | 409 ft | 133 kts | 65° |
| 2026-05-08 04:33 | -37.01904 | 174.76091 | 222 ft | 130 kts | 63° |
| 2026-05-08 04:33 | -37.01609 | 174.77169 | 53 ft | 131 kts | 62° |
| 2026-05-08 04:33 | -37.01355 | 174.78064 | 30 ft | 75 kts | 73° |
| 2026-05-08 04:34 | -37.01187 | 174.78435 | 30 ft | 39 kts | 39° |
| 2026-05-08 04:34 | -37.01110 | 174.78515 | 30 ft | 4 kts | 41° |
| 2026-05-08 04:34 | -37.01061 | 174.78569 | 29 ft | 11 kts | 37° |
| 2026-05-08 04:34 | -37.01001 | 174.78573 | 29 ft | 7 kts | 339° |
| 2026-05-08 04:35 | -37.00963 | 174.78540 | 29 ft | 6 kts | 305° |
| 2026-05-08 04:35 | -37.00962 | 174.78507 | 30 ft | 4 kts | 262° |
| 2026-05-08 04:35 | -37.00972 | 174.78455 | 30 ft | 10 kts | 251° |
| 2026-05-08 04:35 | -37.00993 | 174.78361 | 30 ft | 12 kts | 259° |
| 2026-05-08 04:36 | -37.01013 | 174.78252 | 30 ft | 13 kts | 251° |
| 2026-05-08 04:36 | -37.01036 | 174.78143 | 30 ft | 12 kts | 272° |
| 2026-05-08 04:36 | -37.01000 | 174.78099 | 30 ft | 6 kts | 337° |
| 2026-05-08 04:36 | -37.00954 | 174.78079 | 30 ft | 7 kts | 341° |
| 2026-05-08 04:37 | -37.00905 | 174.78075 | 30 ft | 7 kts | 18° |
| 2026-05-08 04:37 | -37.00869 | 174.78109 | 30 ft | 7 kts | 39° |
| 2026-05-08 04:37 | -37.00850 | 174.78128 | 30 ft | 1 kts | 39° |
| 2026-05-08 04:37 | -37.00834 | 174.78145 | 30 ft | 1 kts | 39° |
| 2026-05-08 04:38 | -37.00830 | 174.78148 | 30 ft | 0 kts | 39° |